»·PEaware :: DAL171 KSLC-KDEN

DAL171 :: KSLC-KDEN

FLIGHT INFORMATION

Flight Status: Arrived
Operator:
Delta Air Lines
More flights by this operator :: More flights under this callsign
Pilot: Tim M. (868)
Aircraft: BOEING 737-700
(B737)
More flights by this aircraft type
Origin: KSLC Salt Lake City Intl
United States
Destination: KDEN Denver Intl
United States
More flights between these airports :: More routes between these airports
Route: RUGGD1 PERTY DCT KAMPR LONGZ1
File this flight plan on PilotEdge
Remarks:
Altitude:
(Current/Filed)
41,000ft
Speed:
(Current/Filed)
451kts
Departed: 22-Aug-20 12:07 PM
Arrived: 22-Aug-20 01:10 PM
Distance/Time
Traveled:
339nm/1:02
Distance/Time
To Go:
Arrived

Flight Plot

Page will automatically refresh every two minutes.

Flight plan parsing failed; only flown route is shown


Map Options




Map Legend


Flown Route
Filed Route
Departure Airport
Arrival Airport
Navaid (VOR, NDB)
Fix

Horizontal Profiles

Position Reports

Time Latitude Longitude Heading Altitude Ground
Speed
22-Aug-20 11:29 40.787394 -111.978772 152 4235ft 0kts
22-Aug-20 11:30 40.787394 -111.978772 152 4235ft 0kts
22-Aug-20 11:31 40.787394 -111.978772 152 4235ft 0kts
22-Aug-20 11:32 40.787394 -111.978772 152 4235ft 0kts
22-Aug-20 11:33 40.787394 -111.978772 152 4235ft 0kts
22-Aug-20 11:34 40.787394 -111.978772 152 4235ft 0kts
22-Aug-20 11:35 40.787394 -111.978772 152 4235ft 0kts
22-Aug-20 11:36 40.787394 -111.978772 152 4235ft 0kts
22-Aug-20 11:37 40.787394 -111.978772 152 4235ft 0kts
22-Aug-20 11:37 40.787394 -111.978772 152 4235ft 0kts
22-Aug-20 11:39 40.787394 -111.978772 152 4235ft 0kts
22-Aug-20 11:39 40.787394 -111.978772 152 4235ft 0kts
22-Aug-20 11:40 40.787394 -111.978772 152 4235ft 0kts
22-Aug-20 11:41 40.787394 -111.978772 152 4235ft 0kts
22-Aug-20 11:43 40.787394 -111.978772 152 4235ft 0kts
22-Aug-20 11:43 40.787394 -111.978772 152 4235ft 0kts
22-Aug-20 11:44 40.787394 -111.978772 152 4235ft 0kts
22-Aug-20 11:45 40.787394 -111.978772 152 4235ft 0kts
22-Aug-20 11:46 40.787394 -111.978772 152 4235ft 0kts
22-Aug-20 11:47 40.787394 -111.978772 152 4235ft 0kts
22-Aug-20 11:48 40.787394 -111.978772 152 4235ft 0kts
22-Aug-20 11:49 40.787394 -111.978772 152 4235ft 0kts
22-Aug-20 11:50 40.787394 -111.978772 152 4235ft 0kts
22-Aug-20 11:51 40.787394 -111.978772 152 4235ft 0kts
22-Aug-20 11:52 40.787394 -111.978772 152 4235ft 0kts
22-Aug-20 11:53 40.787394 -111.978772 152 4235ft 0kts
22-Aug-20 11:54 40.787394 -111.978772 152 4235ft 0kts
22-Aug-20 11:55 40.787670 -111.978985 139 4235ft 2kts
22-Aug-20 11:56 40.787894 -111.979751 99 4235ft 2kts
22-Aug-20 11:57 40.787575 -111.980132 21 4235ft 0kts
22-Aug-20 11:58 40.787575 -111.980132 21 4235ft 0kts
22-Aug-20 11:59 40.788030 -111.979912 17 4235ft 7kts
22-Aug-20 12:00 40.790055 -111.978251 84 4235ft 11kts
22-Aug-20 12:01 40.790288 -111.977016 350 4235ft 10kts
22-Aug-20 12:02 40.794427 -111.977521 354 4235ft 17kts
22-Aug-20 12:03 40.799715 -111.978153 355 4235ft 18kts
22-Aug-20 12:04 40.805109 -111.978782 353 4235ft 19kts
22-Aug-20 12:05 40.805784 -111.976735 175 4235ft 33kts
22-Aug-20 12:06 40.766062 -111.972274 175 4774ft 217kts
22-Aug-20 12:07 40.694550 -111.964745 175 7503ft 274kts
22-Aug-20 12:08 40.631520 -111.918983 108 10960ft 285kts
22-Aug-20 12:09 40.635407 -111.812350 87 14512ft 303kts
22-Aug-20 12:10 40.643054 -111.691772 86 16670ft 371kts
22-Aug-20 12:11 40.652437 -111.545666 86 19047ft 412kts
22-Aug-20 12:12 40.662624 -111.392366 85 21876ft 429kts
22-Aug-20 12:13 40.673368 -111.232744 85 24334ft 444kts
22-Aug-20 12:14 40.683862 -111.067412 85 26285ft 461kts
22-Aug-20 12:15 40.694439 -110.896133 85 28023ft 477kts
22-Aug-20 12:16 40.705070 -110.719331 84 29578ft 491kts
22-Aug-20 12:17 40.715704 -110.537940 85 31014ft 501kts
22-Aug-20 12:18 40.726544 -110.354830 85 32710ft 499kts
22-Aug-20 12:19 40.736359 -110.172881 85 34474ft 494kts
22-Aug-20 12:20 40.739645 -109.993249 94 36132ft 488kts
22-Aug-20 12:21 40.727255 -109.816259 95 37602ft 483kts
22-Aug-20 12:22 40.714906 -109.640496 95 38855ft 479kts
22-Aug-20 12:23 40.703234 -109.465804 95 39855ft 478kts
22-Aug-20 12:24 40.691173 -109.291915 95 40793ft 477kts
22-Aug-20 12:25 40.678171 -109.117289 95 41192ft 478kts
22-Aug-20 12:26 40.666142 -108.943457 94 41207ft 477kts
22-Aug-20 12:27 40.654606 -108.769672 94 41214ft 477kts
22-Aug-20 12:28 40.642771 -108.595988 94 41242ft 476kts
22-Aug-20 12:29 40.631666 -108.422594 94 41251ft 476kts
22-Aug-20 12:30 40.619680 -108.248771 94 41261ft 475kts
22-Aug-20 12:31 40.607607 -108.075943 94 41270ft 475kts
22-Aug-20 12:32 40.595214 -107.902903 94 41275ft 474kts
22-Aug-20 12:33 40.582218 -107.730378 94 41277ft 474kts
22-Aug-20 12:34 40.569113 -107.557718 95 41272ft 475kts
22-Aug-20 12:35 40.555611 -107.384541 94 41280ft 475kts
22-Aug-20 12:36 40.541992 -107.211637 94 41302ft 475kts
22-Aug-20 12:37 40.528878 -107.038697 94 41309ft 475kts
22-Aug-20 12:38 40.515397 -106.866131 94 41300ft 475kts
22-Aug-20 12:39 40.500995 -106.693278 94 41310ft 475kts
22-Aug-20 12:40 40.486348 -106.520210 94 39845ft 479kts
22-Aug-20 12:41 40.470927 -106.346107 96 36720ft 480kts
22-Aug-20 12:42 40.454913 -106.172317 97 33390ft 477kts
22-Aug-20 12:43 40.439853 -106.000154 97 30258ft 468kts
22-Aug-20 12:44 40.420941 -105.834231 102 27538ft 451kts
22-Aug-20 12:45 40.394951 -105.675846 101 24770ft 439kts
22-Aug-20 12:46 40.370359 -105.521342 101 22048ft 426kts
22-Aug-20 12:47 40.344734 -105.378519 111 21222ft 373kts
22-Aug-20 12:48 40.288318 -105.269219 128 19832ft 358kts
22-Aug-20 12:49 40.227685 -105.167648 127 18390ft 349kts
22-Aug-20 12:50 40.169656 -105.070160 127 16872ft 341kts
22-Aug-20 12:51 40.107847 -104.979898 136 15689ft 337kts
22-Aug-20 12:52 40.041603 -104.895216 135 14520ft 330kts
22-Aug-20 12:53 39.974470 -104.814409 153 13374ft 325kts
22-Aug-20 12:54 39.886674 -104.805884 183 12235ft 311kts
22-Aug-20 12:55 39.803501 -104.808937 182 10957ft 292kts
22-Aug-20 12:56 39.722848 -104.812028 182 9453ft 285kts
22-Aug-20 12:57 39.644685 -104.815415 182 8116ft 272kts
22-Aug-20 12:58 39.570733 -104.819049 183 8040ft 266kts
22-Aug-20 12:59 39.496665 -104.819220 160 8014ft 267kts
22-Aug-20 13:00 39.492536 -104.751838 24 7979ft 215kts
22-Aug-20 13:01 39.544874 -104.730577 17 7908ft 186kts
22-Aug-20 13:02 39.594514 -104.711188 12 7987ft 182kts
22-Aug-20 13:03 39.642606 -104.688080 27 7164ft 182kts
22-Aug-20 13:04 39.687098 -104.660686 11 6742ft 176kts
22-Aug-20 13:05 39.729133 -104.661253 1 6616ft 144kts
22-Aug-20 13:06 39.769322 -104.660874 0 6608ft 144kts
22-Aug-20 13:07 39.809733 -104.660617 357 5822ft 145kts
22-Aug-20 13:08 39.844806 -104.660372 0 5439ft 67kts
22-Aug-20 13:09 39.853131 -104.661654 335 5439ft 7kts
22-Aug-20 13:10 39.855599 -104.662390 342 5439ft 11kts
22-Aug-20 13:11 39.856424 -104.666442 323 5439ft 12kts
22-Aug-20 13:13 39.857844 -104.668726 353 5439ft 5kts
22-Aug-20 13:14 39.858140 -104.668736 0 5439ft 0kts
22-Aug-20 13:15 39.858140 -104.668736 0 5439ft 0kts
22-Aug-20 13:16 39.858140 -104.668736 0 5439ft 0kts
22-Aug-20 13:17 39.858140 -104.668736 0 5439ft 0kts
22-Aug-20 13:18 39.858140 -104.668736 0 5439ft 0kts
22-Aug-20 13:19 39.858140 -104.668736 0 5439ft 0kts
22-Aug-20 13:20 39.858140 -104.668736 0 5439ft 0kts
22-Aug-20 13:21 39.858140 -104.668736 0 5439ft 0kts

Navigation Log

Ident Type
Flight plan parsing failed, navigation log unavailable